Time;durP1;ratioP1;P1;durP2;ratioP2;P2;SDS_P1;SDS_P2;PMS_P1;PMS_P2;Temp;Humidity;BMP_temperature;BMP_pressure;BME280_temperature;BME280_humidity;BME280_pressure;Samples;Min_cycle;Max_cycle;Signal;HPM_P1;HPM_P2
2022/05/30 01:26:41;;;;;;;3.00;1.95;;;15.80;69.30;;;;;;5070756;22;20050;-63
2022/05/30 01:29:38;;;;;;;4.00;1.73;;;15.80;69.30;;;;;;5072252;28;20105;-64
2022/05/30 01:32:04;;;;;;;4.07;1.95;;;15.80;69.60;;;;;;5086143;28;20032;-63
2022/05/30 01:34:29;;;;;;;3.00;1.83;;;15.80;69.40;;;;;;5092348;28;20024;-63
2022/05/30 01:37:05;;;;;;;4.00;2.05;;;15.80;69.40;;;;;;5091266;28;20115;-63
2022/05/30 01:39:31;;;;;;;4.55;1.80;;;15.80;69.60;;;;;;5104306;28;20153;-64
2022/05/30 01:41:57;;;;;;;3.28;1.77;;;15.80;69.50;;;;;;5092171;28;20072;-63
2022/05/30 01:44:23;;;;;;;5.57;1.90;;;15.80;69.40;;;;;;5112279;28;20027;-63
2022/05/30 01:46:48;;;;;;;4.97;1.42;;;15.80;69.40;;;;;;5112541;28;20357;-63
2022/05/30 01:49:14;;;;;;;3.13;1.73;;;15.80;69.40;;;;;;5112181;28;20034;-63
2022/05/30 01:51:39;;;;;;;5.40;1.70;;;15.80;69.60;;;;;;5093736;28;20115;-63
2022/05/30 01:54:05;;;;;;;5.97;1.77;;;15.80;69.50;;;;;;5110431;28;20028;-64
2022/05/30 01:56:31;;;;;;;2.65;1.27;;;15.80;69.60;;;;;;5112354;28;20027;-63
2022/05/30 01:58:56;;;;;;;3.28;1.58;;;15.80;69.60;;;;;;5110794;28;20518;-63
2022/05/30 02:01:26;;;;;;;3.45;1.85;;;15.80;69.60;;;;;;5112496;28;20051;-63
2022/05/30 02:03:53;;;;;;;4.13;1.80;;;15.80;69.80;;;;;;5088935;28;20479;-63
2022/05/30 02:06:20;;;;;;;9.10;1.80;;;15.80;69.80;;;;;;5091703;28;20274;-63
2022/05/30 02:08:47;;;;;;;4.15;2.35;;;15.80;69.80;;;;;;5094676;28;20024;-63
2022/05/30 02:11:14;;;;;;;3.70;1.83;;;15.80;69.80;;;;;;5112074;28;20068;-63
2022/05/30 02:13:39;;;;;;;2.47;1.88;;;15.80;69.90;;;;;;5110913;28;20072;-63
2022/05/30 02:18:52;;;;;;;2.90;1.80;;;15.80;69.90;;;;;;5097421;28;20051;-63
2022/05/30 02:21:18;;;;;;;3.28;1.50;;;15.80;70.00;;;;;;5091472;28;20025;-64
2022/05/30 02:23:44;;;;;;;2.42;2.03;;;15.80;70.00;;;;;;5090756;28;20016;-63
2022/05/30 02:26:10;;;;;;;4.65;2.22;;;15.70;69.90;;;;;;5091581;28;20440;-63
2022/05/30 02:28:36;;;;;;;5.97;2.10;;;15.80;70.10;;;;;;5122126;27;20031;-63
2022/05/30 02:31:02;;;;;;;4.40;2.20;;;15.80;70.10;;;;;;5132148;27;20487;-64
2022/05/30 02:38:57;;;;;;;3.85;1.92;;;15.80;70.20;;;;;;5131823;27;20087;-63
2022/05/30 02:41:22;;;;;;;7.15;2.42;;;15.80;70.30;;;;;;5132490;27;20023;-63
2022/05/30 02:43:50;;;;;;;3.88;1.95;;;15.70;70.30;;;;;;5130530;27;20121;-63
2022/05/30 02:46:16;;;;;;;2.67;2.03;;;15.70;70.30;;;;;;5132064;27;20038;-63
2022/05/30 02:48:41;;;;;;;6.50;1.90;;;15.80;70.40;;;;;;5116241;27;20031;-65
2022/05/30 02:51:07;;;;;;;3.63;2.22;;;15.70;70.40;;;;;;5111475;28;20053;-63
2022/05/30 02:53:33;;;;;;;5.10;2.03;;;15.70;70.50;;;;;;5111431;28;20107;-63
2022/05/30 02:55:59;;;;;;;6.20;2.00;;;15.70;70.40;;;;;;5111087;28;20031;-64
2022/05/30 02:58:25;;;;;;;10.65;2.28;;;15.70;70.50;;;;;;5119685;27;20091;-63
2022/05/30 03:00:51;;;;;;;2.28;1.73;;;15.70;70.60;;;;;;5112170;27;20091;-64
2022/05/30 03:03:18;;;;;;;3.83;2.17;;;15.70;70.60;;;;;;5110725;27;20077;-63
2022/05/30 03:05:43;;;;;;;3.15;1.58;;;15.70;70.70;;;;;;5130519;27;20172;-63
2022/05/30 03:08:09;;;;;;;3.58;2.17;;;15.70;70.60;;;;;;5131501;27;20528;-63
2022/05/30 03:10:36;;;;;;;1.83;1.60;;;15.70;70.70;;;;;;5131097;27;20125;-63
2022/05/30 03:13:03;;;;;;;3.20;1.95;;;15.70;70.70;;;;;;5112158;27;20384;-64
2022/05/30 03:15:29;;;;;;;3.83;2.13;;;15.70;70.70;;;;;;5130724;27;20604;-63
2022/05/30 03:17:54;;;;;;;4.13;2.05;;;15.70;70.80;;;;;;5130987;27;20106;-63
2022/05/30 03:20:20;;;;;;;3.72;2.30;;;15.70;70.80;;;;;;5128314;27;20027;-64
2022/05/30 03:22:47;;;;;;;2.05;1.73;;;15.70;70.80;;;;;;5130239;27;20064;-63
2022/05/30 03:25:13;;;;;;;2.88;2.10;;;15.70;70.90;;;;;;5130744;27;20567;-63
2022/05/30 03:27:39;;;;;;;3.15;1.58;;;15.70;70.90;;;;;;5111573;27;20042;-64
2022/05/30 03:30:06;;;;;;;3.10;2.22;;;15.70;70.90;;;;;;5130141;27;20027;-63
2022/05/30 03:32:31;;;;;;;4.65;1.90;;;15.70;71.00;;;;;;5131202;27;20030;-63
2022/05/30 03:34:57;;;;;;;3.67;2.03;;;15.70;71.10;;;;;;5130109;27;20031;-63
2022/05/30 03:37:22;;;;;;;2.88;1.98;;;15.70;71.10;;;;;;5130566;27;20422;-63
2022/05/30 03:39:48;;;;;;;2.75;1.85;;;15.70;71.20;;;;;;5111886;27;20571;-64
2022/05/30 03:42:14;;;;;;;4.80;2.05;;;15.70;71.10;;;;;;5129029;27;20053;-64
2022/05/30 03:44:43;;;;;;;5.18;2.00;;;15.60;71.00;;;;;;5128888;27;20046;-63
2022/05/30 03:47:09;;;;;;;5.43;1.88;;;15.70;71.20;;;;;;5130656;27;20023;-64
2022/05/30 03:49:35;;;;;;;9.63;2.17;;;15.70;71.30;;;;;;5129884;27;20023;-63
2022/05/30 03:52:00;;;;;;;6.38;2.00;;;15.60;71.20;;;;;;5112245;27;20042;-63
2022/05/30 03:54:27;;;;;;;2.70;1.90;;;15.60;71.20;;;;;;5130293;27;20026;-63
2022/05/30 03:56:52;;;;;;;6.47;1.92;;;15.60;71.30;;;;;;5130627;27;20388;-63
2022/05/30 03:59:18;;;;;;;3.75;1.80;;;15.70;71.30;;;;;;5109893;27;20035;-63
2022/05/30 04:01:44;;;;;;;3.10;2.03;;;15.60;71.30;;;;;;5111742;28;20122;-64
2022/05/30 04:04:12;;;;;;;2.90;2.10;;;15.60;71.30;;;;;;5130331;27;20084;-63
2022/05/30 04:06:38;;;;;;;5.78;2.00;;;15.60;71.40;;;;;;5130164;27;20032;-63
2022/05/30 04:09:04;;;;;;;2.50;1.95;;;15.60;71.40;;;;;;5129775;27;20035;-63
2022/05/30 04:11:30;;;;;;;2.60;1.92;;;15.60;71.50;;;;;;5130309;28;20376;-63
2022/05/30 04:13:56;;;;;;;5.60;2.05;;;15.60;71.50;;;;;;5110769;28;20027;-63
2022/05/30 04:16:23;;;;;;;5.88;1.98;;;15.60;71.50;;;;;;5129482;28;20022;-63
2022/05/30 04:18:49;;;;;;;4.75;1.92;;;15.60;71.50;;;;;;5115935;28;20035;-63
2022/05/30 04:21:15;;;;;;;4.82;1.92;;;15.60;71.60;;;;;;5109938;28;20144;-63
2022/05/30 04:23:42;;;;;;;2.05;1.60;;;15.60;71.60;;;;;;5127911;28;20031;-63
2022/05/30 04:26:10;;;;;;;2.75;1.60;;;15.60;71.60;;;;;;5130339;28;20019;-63
2022/05/30 04:28:36;;;;;;;3.65;1.92;;;15.60;71.70;;;;;;5128825;28;20035;-63
2022/05/30 04:31:10;;;;;;;2.92;1.80;;;15.60;71.70;;;;;;5110120;27;20026;-64
2022/05/30 04:33:37;;;;;;;6.57;2.03;;;15.60;71.80;;;;;;5115801;27;20061;-64
2022/05/30 04:36:08;;;;;;;4.22;2.50;;;15.60;71.70;;;;;;5134223;27;20035;-64
2022/05/30 04:38:34;;;;;;;6.10;3.00;;;15.60;71.80;;;;;;5115723;27;20027;-63
2022/05/30 04:41:00;;;;;;;5.20;3.22;;;15.60;71.80;;;;;;5115749;27;20020;-63
2022/05/30 04:43:25;;;;;;;7.80;2.67;;;15.60;71.90;;;;;;5132573;27;20035;-64
2022/05/30 04:46:13;;;;;;;6.47;2.95;;;15.60;72.70;;;;;;5125538;27;20079;-63
2022/05/30 04:48:40;;;;;;;5.55;2.67;;;15.60;72.20;;;;;;5098849;28;20411;-63
2022/05/30 04:51:05;;;;;;;4.82;2.50;;;15.60;72.00;;;;;;5111799;28;20230;-63
2022/05/30 04:53:32;;;;;;;4.90;2.58;;;15.60;72.00;;;;;;5111923;28;20028;-63
2022/05/30 04:55:58;;;;;;;7.47;3.10;;;15.60;72.00;;;;;;5112576;28;20411;-64
2022/05/30 04:58:24;;;;;;;6.30;3.05;;;15.60;71.80;;;;;;5113065;27;20046;-64
2022/05/30 05:00:55;;;;;;;5.65;2.60;;;15.70;71.70;;;;;;5115413;27;20015;-63
2022/05/30 05:03:20;;;;;;;7.57;3.05;;;15.70;71.90;;;;;;5126023;27;20031;-63
2022/05/30 05:05:46;;;;;;;5.40;2.55;;;15.70;71.60;;;;;;5132512;27;20011;-64
2022/05/30 05:08:15;;;;;;;4.80;2.35;;;15.70;71.60;;;;;;5133205;27;20110;-63
2022/05/30 05:10:48;;;;;;;6.00;2.75;;;15.70;71.70;;;;;;5132600;27;20023;-63
2022/05/30 05:13:14;;;;;;;8.70;2.60;;;15.70;71.60;;;;;;5133684;27;20019;-63
2022/05/30 05:15:39;;;;;;;2.95;2.30;;;15.80;71.80;;;;;;5132790;27;20049;-63
2022/05/30 05:18:05;;;;;;;3.97;2.40;;;15.80;72.30;;;;;;5107340;28;20388;-63
2022/05/30 05:20:41;;;;;;;3.55;2.10;;;15.80;72.40;;;;;;5112707;28;20031;-63
2022/05/30 05:23:08;;;;;;;6.93;2.63;;;15.80;72.60;;;;;;5125837;27;20035;-64
2022/05/30 05:25:37;;;;;;;5.45;2.78;;;15.80;72.70;;;;;;5133307;27;20027;-63
2022/05/30 05:28:04;;;;;;;5.07;2.92;;;15.80;72.70;;;;;;5132733;27;20042;-63
2022/05/30 05:30:31;;;;;;;7.03;2.95;;;15.80;72.70;;;;;;5132068;27;20369;-63
2022/05/30 05:32:56;;;;;;;4.45;3.13;;;15.90;72.70;;;;;;5114415;27;20034;-63
2022/05/30 05:35:22;;;;;;;5.57;2.78;;;15.90;72.70;;;;;;5132599;27;20023;-63
2022/05/30 05:37:48;;;;;;;12.45;3.15;;;15.90;72.60;;;;;;5132473;27;20034;-63
2022/05/30 05:40:13;;;;;;;5.03;2.78;;;15.90;72.60;;;;;;5131661;27;20471;-64
2022/05/30 05:42:39;;;;;;;5.20;2.60;;;15.90;72.90;;;;;;5131420;27;20105;-63
2022/05/30 05:45:05;;;;;;;9.48;3.30;;;15.90;72.90;;;;;;5122479;27;20023;-63
2022/05/30 05:47:31;;;;;;;10.70;3.10;;;16.00;73.10;;;;;;5115165;27;20018;-63
2022/05/30 05:49:57;;;;;;;4.78;3.00;;;16.00;73.20;;;;;;5113709;27;20035;-64
2022/05/30 05:52:25;;;;;;;4.47;2.65;;;16.00;73.10;;;;;;5131765;27;20506;-64
2022/05/30 05:54:54;;;;;;;7.57;2.70;;;16.00;73.10;;;;;;5131676;27;20554;-64
2022/05/30 05:57:21;;;;;;;7.17;3.63;;;16.00;73.10;;;;;;5132319;27;20428;-64
2022/05/30 05:59:46;;;;;;;4.45;2.60;;;16.10;73.10;;;;;;5126667;27;20372;-64
2022/05/30 06:02:12;;;;;;;6.45;3.30;;;16.10;73.20;;;;;;5114068;27;20114;-64
2022/05/30 06:04:39;;;;;;;10.25;2.95;;;16.10;73.30;;;;;;5132668;27;20046;-64
2022/05/30 06:07:04;;;;;;;7.13;2.58;;;16.10;73.30;;;;;;5131540;27;20080;-63
2022/05/30 06:09:30;;;;;;;7.50;2.85;;;16.10;73.30;;;;;;5131643;27;20027;-63
2022/05/30 06:11:58;;;;;;;6.97;3.05;;;16.10;73.50;;;;;;5132726;27;20027;-63
2022/05/30 06:14:23;;;;;;;7.68;3.15;;;16.20;73.70;;;;;;5112255;27;20026;-63
2022/05/30 06:16:49;;;;;;;4.82;2.30;;;16.20;73.70;;;;;;5123195;27;20028;-64
2022/05/30 06:19:16;;;;;;;8.07;2.70;;;16.20;73.80;;;;;;5122049;27;20031;-64
2022/05/30 06:21:48;;;;;;;4.95;2.85;;;16.20;73.80;;;;;;5132692;27;20049;-64
2022/05/30 06:24:15;;;;;;;4.85;2.85;;;16.20;73.70;;;;;;5113897;27;20019;-63
2022/05/30 06:26:44;;;;;;;4.78;2.67;;;16.20;73.80;;;;;;5132295;27;20406;-63
2022/05/30 06:29:11;;;;;;;4.63;2.70;;;16.30;73.90;;;;;;5130852;27;20464;-64
2022/05/30 06:31:37;;;;;;;6.35;2.65;;;16.30;73.90;;;;;;5132515;27;20122;-63
2022/05/30 06:34:03;;;;;;;4.90;2.30;;;16.30;73.80;;;;;;5131780;27;20396;-64
2022/05/30 06:36:29;;;;;;;4.25;2.40;;;16.30;73.80;;;;;;5132000;27;20015;-63
2022/05/30 06:38:56;;;;;;;9.30;2.67;;;16.30;73.70;;;;;;5131651;27;20081;-64
2022/05/30 06:41:30;;;;;;;4.85;2.80;;;16.40;74.50;;;;;;5113857;27;20027;-63
2022/05/30 06:44:04;;;;;;;4.45;2.10;;;16.40;73.70;;;;;;5129608;27;20023;-64
2022/05/30 06:46:31;;;;;;;7.05;2.17;;;16.40;73.60;;;;;;5129684;27;20038;-63
2022/05/30 06:48:57;;;;;;;2.80;2.33;;;16.40;73.50;;;;;;5131274;27;20475;-63
2022/05/30 06:51:25;;;;;;;4.22;2.67;;;16.40;73.50;;;;;;5113607;27;20059;-63
2022/05/30 06:53:51;;;;;;;7.53;2.15;;;16.50;73.50;;;;;;5131650;27;20051;-63
2022/05/30 06:56:23;;;;;;;5.20;2.45;;;16.50;73.40;;;;;;5131941;27;20551;-63
2022/05/30 06:58:51;;;;;;;5.82;2.53;;;16.50;73.40;;;;;;5131336;27;20079;-64
2022/05/30 07:01:18;;;;;;;5.97;2.38;;;16.50;73.40;;;;;;5112208;27;20084;-63
2022/05/30 07:03:45;;;;;;;6.32;2.53;;;16.50;73.40;;;;;;5131380;27;20023;-64
2022/05/30 07:06:13;;;;;;;2.88;2.10;;;16.50;73.30;;;;;;5131819;27;20019;-63
2022/05/30 07:08:41;;;;;;;10.40;2.25;;;16.60;73.60;;;;;;5112516;27;20060;-64
2022/05/30 07:11:07;;;;;;;3.30;2.30;;;16.60;73.40;;;;;;5113208;27;20114;-64
2022/05/30 07:13:33;;;;;;;3.70;2.33;;;16.60;73.40;;;;;;5131301;27;20126;-64
2022/05/30 07:15:59;;;;;;;5.43;2.33;;;16.60;73.50;;;;;;5130629;27;20062;-64
2022/05/30 07:18:24;;;;;;;4.50;1.85;;;16.60;73.80;;;;;;5121011;27;20027;-63
2022/05/30 07:20:58;;;;;;;4.00;2.30;;;16.70;73.90;;;;;;5110944;28;20551;-64
2022/05/30 07:23:24;;;;;;;3.65;1.70;;;16.70;73.80;;;;;;5109968;28;20411;-67
2022/05/30 07:25:50;;;;;;;2.80;1.65;;;16.70;73.80;;;;;;5097886;28;20012;-64
2022/05/30 07:28:16;;;;;;;4.85;2.00;;;16.70;73.80;;;;;;5116919;27;20042;-64
2022/05/30 07:30:42;;;;;;;7.13;2.25;;;16.70;74.00;;;;;;5122793;27;20027;-65
2022/05/30 07:33:08;;;;;;;4.85;1.85;;;16.70;74.00;;;;;;5114724;27;20103;-64
2022/05/30 07:35:35;;;;;;;2.20;1.88;;;16.80;74.20;;;;;;5110708;28;20582;-63
2022/05/30 07:38:04;;;;;;;3.25;2.20;;;16.80;74.20;;;;;;5127417;27;20031;-63
2022/05/30 07:40:29;;;;;;;2.25;1.73;;;16.80;75.00;;;;;;5116927;27;20028;-64
2022/05/30 07:42:55;;;;;;;2.67;1.70;;;16.80;74.20;;;;;;5120819;27;20034;-63
2022/05/30 07:45:21;;;;;;;3.17;1.73;;;16.80;74.80;;;;;;5129418;27;20027;-63
2022/05/30 07:47:47;;;;;;;4.63;1.67;;;16.90;74.00;;;;;;5102976;27;20072;-64
2022/05/30 07:50:13;;;;;;;4.95;1.70;;;16.90;73.90;;;;;;5124436;27;20110;-63
2022/05/30 07:52:39;;;;;;;4.72;1.75;;;16.90;73.80;;;;;;5105246;27;20121;-64
2022/05/30 07:55:05;;;;;;;3.15;1.83;;;16.90;73.80;;;;;;5098302;28;20500;-64
2022/05/30 08:00:15;;;;;;;3.90;1.88;;;16.90;73.70;;;;;;5111915;27;20201;-64
2022/05/30 08:02:41;;;;;;;7.40;1.42;;;16.90;73.80;;;;;;5130413;27;20023;-63
2022/05/30 08:05:10;;;;;;;4.65;1.33;;;16.90;73.60;;;;;;5130339;27;20019;-64
2022/05/30 08:07:36;;;;;;;3.10;1.20;;;16.90;74.30;;;;;;5123348;27;20110;-63
2022/05/30 08:10:04;;;;;;;6.60;1.73;;;16.90;73.60;;;;;;5093125;28;20027;-63
2022/05/30 08:12:29;;;;;;;2.65;1.42;;;16.90;73.60;;;;;;5109807;28;20020;-63
2022/05/30 08:14:56;;;;;;;6.53;1.70;;;17.00;73.90;;;;;;5122532;28;20068;-63
2022/05/30 08:17:22;;;;;;;1.30;1.20;;;17.00;74.00;;;;;;5119755;28;20051;-63
2022/05/30 08:19:48;;;;;;;1.58;1.40;;;17.00;73.90;;;;;;5118680;28;20073;-64
2022/05/30 08:22:14;;;;;;;3.00;1.65;;;17.00;73.90;;;;;;5127906;28;20019;-64
2022/05/30 08:24:43;;;;;;;4.25;1.60;;;17.00;73.60;;;;;;5110775;28;20178;-64
2022/05/30 08:27:09;;;;;;;1.83;1.13;;;17.10;73.70;;;;;;5129497;28;20025;-63
2022/05/30 08:29:34;;;;;;;2.58;1.50;;;17.10;73.50;;;;;;5104200;28;20027;-64
2022/05/30 08:32:00;;;;;;;1.98;1.50;;;17.10;73.50;;;;;;5106149;28;20164;-64
2022/05/30 08:34:26;;;;;;;6.63;1.52;;;17.10;73.70;;;;;;5111175;28;20064;-63
2022/05/30 08:36:52;;;;;;;2.20;1.40;;;17.00;74.10;;;;;;5128436;28;20027;-64
2022/05/30 08:42:03;;;;;;;7.93;1.70;;;17.10;73.50;;;;;;5124146;28;20085;-63
2022/05/30 08:44:29;;;;;;;1.60;1.20;;;17.10;73.80;;;;;;5128549;28;20408;-63
2022/05/30 08:47:20;;;;;;;1.85;1.30;;;17.10;73.70;;;;;;5127645;28;20038;-63
2022/05/30 08:49:49;;;;;;;2.53;1.30;;;17.10;73.90;;;;;;5125114;28;20095;-64
2022/05/30 08:53:10;;;;;;;1.73;1.15;;;17.10;73.90;;;;;;5116734;28;20038;-63
2022/05/30 08:56:01;;;;;;;1.42;1.20;;;17.10;73.90;;;;;;5028385;28;20057;-64
2022/05/30 08:59:03;;;;;;;2.13;1.17;;;17.10;73.90;;;;;;5045224;28;20056;-63
2022/05/30 09:01:41;;;;;;;2.80;1.40;;;17.10;74.00;;;;;;5044873;28;20037;-63
2022/05/30 09:04:27;;;;;;;3.58;1.10;;;17.10;73.90;;;;;;5044929;28;20032;-63
2022/05/30 09:11:08;;;;;;;2.40;0.98;;;17.10;73.90;;;;;;4969466;28;20050;-63
2022/05/30 09:20:17;;;;;;;1.98;1.20;;;17.10;74.10;;;;;;4891889;29;20181;-63
2022/05/30 09:22:44;;;;;;;5.03;1.15;;;17.10;74.30;;;;;;4893720;29;20044;-64
2022/05/30 09:27:59;;;;;;;4.05;0.93;;;17.10;74.80;;;;;;4893662;29;20091;-63
2022/05/30 09:30:37;;;;;;;1.92;0.88;;;17.10;74.70;;;;;;4894120;29;20037;-63
2022/05/30 09:33:29;;;;;;;0.85;0.60;;;17.10;74.40;;;;;;4930338;29;20581;-64
2022/05/30 09:36:11;;;;;;;0.70;0.70;;;17.10;74.20;;;;;;4931178;29;20044;-63
2022/05/30 09:38:52;;;;;;;2.10;1.00;;;17.10;74.30;;;;;;4915286;29;20405;-63
2022/05/30 09:41:30;;;;;;;1.45;0.90;;;17.10;74.10;;;;;;4931475;29;20066;-65
2022/05/30 09:44:12;;;;;;;3.30;0.80;;;17.10;73.90;;;;;;4950270;29;20549;-63
2022/05/30 09:46:49;;;;;;;1.00;0.88;;;17.10;74.20;;;;;;4974638;28;20042;-63
2022/05/30 09:49:24;;;;;;;0.80;0.80;;;17.10;74.00;;;;;;5033736;28;20132;-63
2022/05/30 09:51:55;;;;;;;3.13;0.93;;;17.10;74.00;;;;;;5068153;28;20046;-64
2022/05/30 09:54:47;;;;;;;1.20;0.95;;;17.10;73.90;;;;;;5089555;27;20055;-64
2022/05/30 09:57:39;;;;;;;2.22;1.42;;;17.20;73.90;;;;;;5046990;28;20077;-63
2022/05/30 10:00:17;;;;;;;3.95;1.00;;;17.10;73.90;;;;;;5047978;28;20341;-63
2022/05/30 10:02:46;;;;;;;0.80;0.80;;;17.20;73.70;;;;;;5046461;28;20095;-66
2022/05/30 10:05:20;;;;;;;1.50;1.00;;;17.20;74.00;;;;;;5046037;28;20025;-63
2022/05/30 10:07:59;;;;;;;3.08;1.00;;;17.20;74.00;;;;;;5047445;28;20071;-63
2022/05/30 10:10:49;;;;;;;2.88;1.05;;;17.20;73.80;;;;;;5039413;28;20052;-63
2022/05/30 10:13:34;;;;;;;1.52;0.90;;;17.20;73.90;;;;;;5042327;28;20563;-64
2022/05/30 10:16:00;;;;;;;2.53;1.00;;;17.20;73.90;;;;;;5048200;28;20060;-63
2022/05/30 10:18:30;;;;;;;3.47;1.00;;;17.20;74.70;;;;;;5036133;28;20200;-63
2022/05/30 10:21:10;;;;;;;1.13;1.00;;;17.20;74.00;;;;;;5028065;28;20034;-63
2022/05/30 10:30:02;;;;;;;3.38;0.90;;;17.20;74.00;;;;;;5023139;28;20043;-64
2022/05/30 10:32:34;;;;;;;1.83;1.00;;;17.20;74.10;;;;;;5036830;28;20123;-63
2022/05/30 10:35:08;;;;;;;2.15;1.05;;;17.20;73.90;;;;;;5109673;27;20043;-63
2022/05/30 10:37:37;;;;;;;6.78;1.10;;;17.20;73.90;;;;;;5112663;27;20031;-63
2022/05/30 10:40:27;;;;;;;1.70;1.20;;;17.20;73.70;;;;;;5130236;27;20035;-63
2022/05/30 10:43:02;;;;;;;3.47;1.13;;;17.20;73.90;;;;;;5131925;27;20042;-63
2022/05/30 10:45:50;;;;;;;2.35;1.00;;;17.20;74.00;;;;;;5112443;27;20075;-63
2022/05/30 10:48:38;;;;;;;1.05;0.95;;;17.20;74.00;;;;;;5111147;27;20430;-64
2022/05/30 10:51:14;;;;;;;0.82;0.80;;;17.20;73.90;;;;;;5132242;27;20383;-64
2022/05/30 10:53:59;;;;;;;1.05;0.98;;;17.20;74.00;;;;;;5131670;27;20027;-62
2022/05/30 10:56:34;;;;;;;3.38;0.70;;;17.20;74.10;;;;;;5112524;27;20122;-63
2022/05/30 10:59:15;;;;;;;3.85;0.98;;;17.20;74.10;;;;;;5130890;27;20024;-63
2022/05/30 11:01:49;;;;;;;1.52;0.95;;;17.20;74.00;;;;;;5127704;27;20054;-63
2022/05/30 11:04:34;;;;;;;1.52;1.08;;;17.20;73.90;;;;;;5131093;27;20058;-63
2022/05/30 11:07:15;;;;;;;7.43;1.27;;;17.20;74.00;;;;;;5111555;27;20664;-63
2022/05/30 11:09:50;;;;;;;3.35;1.10;;;17.20;74.00;;;;;;5110904;27;20028;-63
2022/05/30 11:12:22;;;;;;;1.25;0.90;;;17.20;73.70;;;;;;5129097;27;20015;-63
2022/05/30 11:15:11;;;;;;;1.75;1.23;;;17.20;74.00;;;;;;5130758;27;20029;-63
2022/05/30 11:17:43;;;;;;;3.22;0.90;;;17.10;74.10;;;;;;5125616;27;20027;-63
2022/05/30 11:20:20;;;;;;;1.30;0.90;;;17.20;74.00;;;;;;5110041;28;20027;-63
2022/05/30 11:22:56;;;;;;;4.70;1.30;;;17.10;74.20;;;;;;5091807;28;20067;-63
2022/05/30 11:25:43;;;;;;;1.20;1.00;;;17.10;74.20;;;;;;5117579;27;20027;-64
2022/05/30 11:28:54;;;;;;;5.20;1.00;;;17.10;74.20;;;;;;5100623;28;20058;-63
2022/05/30 11:31:45;;;;;;;1.15;1.00;;;17.10;74.20;;;;;;5090970;27;20449;-64
2022/05/30 11:34:20;;;;;;;;;;;17.10;74.20;;;;;;5122616;27;20187;-63
2022/05/30 11:36:45;;;;;;;1.17;1.00;;;17.10;74.40;;;;;;5121447;27;20423;-63
2022/05/30 11:39:58;;;;;;;1.60;0.90;;;17.10;74.10;;;;;;5128591;27;20133;-63
2022/05/30 11:42:46;;;;;;;2.17;0.93;;;17.10;74.30;;;;;;5067902;27;20035;-63
2022/05/30 11:45:57;;;;;;;1.58;1.02;;;17.10;74.30;;;;;;5130120;27;20026;-63
2022/05/30 11:48:37;;;;;;;3.40;1.00;;;17.10;74.40;;;;;;5129223;27;20031;-63
2022/05/30 11:51:03;;;;;;;;;;;17.10;74.30;;;;;;5130811;27;20046;-63
2022/05/30 11:54:04;;;;;;;2.28;0.90;;;17.10;74.40;;;;;;5111291;27;19903;-63
2022/05/30 11:57:00;;;;;;;1.00;1.00;;;17.10;74.50;;;;;;5118740;27;20130;-64
2022/05/30 12:00:07;;;;;;;0.93;0.90;;;17.10;74.40;;;;;;5129849;27;20103;-63
2022/05/30 12:03:08;;;;;;;3.08;1.30;;;17.10;74.30;;;;;;5128352;27;20027;-63
2022/05/30 12:06:10;;;;;;;2.20;1.00;;;17.10;74.30;;;;;;5105463;27;20067;-63
2022/05/30 12:08:59;;;;;;;4.05;1.15;;;17.10;74.40;;;;;;5129096;27;20061;-63
2022/05/30 12:11:41;;;;;;;3.28;1.25;;;17.10;75.00;;;;;;5122168;28;20120;-64
2022/05/30 12:14:25;;;;;;;2.00;1.00;;;17.10;74.00;;;;;;5129790;27;20027;-63
2022/05/30 12:16:59;;;;;;;1.65;1.00;;;17.10;74.20;;;;;;5128753;28;20019;-63
2022/05/30 12:25:01;;;;;;;3.30;1.10;;;17.10;74.30;;;;;;5130321;28;20033;-63
2022/05/30 12:27:36;;;;;;;3.40;1.02;;;17.10;74.20;;;;;;5129927;28;20386;-62
2022/05/30 12:30:14;;;;;;;2.00;1.00;;;17.20;67.50;;;;;;5129373;28;20076;-62
2022/05/30 12:32:43;;;;;;;0.95;0.85;;;17.20;63.60;;;;;;5129085;28;20383;-62
2022/05/30 12:35:21;;;;;;;4.40;1.00;;;17.20;63.10;;;;;;5129773;27;20051;-63
2022/05/30 12:37:59;;;;;;;3.53;0.90;;;17.20;62.60;;;;;;5129776;28;20027;-63
2022/05/30 12:40:27;;;;;;;1.88;0.98;;;17.20;62.20;;;;;;5129956;28;20031;-63
2022/05/30 12:43:15;;;;;;;1.98;0.98;;;17.10;61.40;;;;;;5129681;28;20376;-63
2022/05/30 12:45:48;;;;;;;1.48;1.10;;;17.10;58.90;;;;;;5129092;28;20299;-63
2022/05/30 12:48:16;;;;;;;2.72;1.05;;;17.10;57.80;;;;;;5128130;28;20057;-62
2022/05/30 12:50:51;;;;;;;3.88;1.00;;;17.10;56.90;;;;;;5130035;28;20112;-63
2022/05/30 12:53:20;;;;;;;1.50;1.02;;;17.10;56.20;;;;;;5131083;27;20023;-63
2022/05/30 12:55:51;;;;;;;1.70;1.05;;;17.10;56.70;;;;;;5133760;27;20026;-63
2022/05/30 12:58:34;;;;;;;1.95;1.00;;;17.10;54.80;;;;;;5133560;27;20032;-63
2022/05/30 13:01:20;;;;;;;5.35;1.20;;;17.10;55.40;;;;;;5133224;27;20076;-63
2022/05/30 13:04:27;;;;;;;3.80;0.90;;;17.10;55.30;;;;;;5132401;27;20229;-63
2022/05/30 13:06:58;;;;;;;1.00;1.00;;;17.10;55.20;;;;;;5133229;27;20031;-62
2022/05/30 13:09:36;;;;;;;3.90;0.95;;;17.20;56.20;;;;;;5114678;27;20321;-62
2022/05/30 13:12:01;;;;;;;8.00;1.80;;;17.20;56.70;;;;;;5133284;27;20024;-62
2022/05/30 13:14:36;;;;;;;1.20;0.75;;;17.30;56.50;;;;;;5132611;27;20034;-63
2022/05/30 13:17:37;;;;;;;2.65;0.95;;;17.20;56.30;;;;;;5133209;27;20019;-63
2022/05/30 13:20:09;;;;;;;1.55;1.00;;;17.30;55.70;;;;;;5132773;27;20043;-63
2022/05/30 13:22:45;;;;;;;2.83;0.88;;;17.30;54.20;;;;;;5133057;27;20024;-63
2022/05/30 13:25:14;;;;;;;0.90;0.80;;;17.20;54.90;;;;;;5133500;27;20023;-63
2022/05/30 13:27:40;;;;;;;6.72;0.90;;;17.20;53.60;;;;;;5132002;27;20038;-63
2022/05/30 13:30:28;;;;;;;2.45;1.08;;;17.10;53.60;;;;;;5132005;27;20031;-62
2022/05/30 13:32:54;;;;;;;2.20;0.90;;;17.10;53.10;;;;;;5131202;27;20027;-62
2022/05/30 13:35:24;;;;;;;3.90;1.27;;;17.20;52.50;;;;;;5131985;27;20509;-62
2022/05/30 13:37:59;;;;;;;13.55;1.05;;;17.20;52.10;;;;;;5130618;27;20054;-63
2022/05/30 13:40:27;;;;;;;2.05;0.88;;;17.20;52.00;;;;;;5124396;27;20030;-63
2022/05/30 13:42:54;;;;;;;1.10;1.00;;;17.10;51.70;;;;;;5132787;27;20034;-63
2022/05/30 13:45:42;;;;;;;1.48;0.80;;;17.20;51.90;;;;;;5131568;27;20079;-63
2022/05/30 13:48:10;;;;;;;2.33;0.88;;;17.10;51.20;;;;;;5130477;27;20170;-63
2022/05/30 13:50:54;;;;;;;1.40;1.10;;;17.10;51.00;;;;;;5133441;27;20551;-63
2022/05/30 13:53:25;;;;;;;5.10;0.90;;;17.10;51.80;;;;;;5132266;27;20121;-63
2022/05/30 13:56:10;;;;;;;1.70;0.95;;;17.00;51.60;;;;;;5132272;27;20068;-63
2022/05/30 13:58:43;;;;;;;0.98;0.80;;;17.00;51.20;;;;;;5131934;27;20023;-62
2022/05/30 14:01:13;;;;;;;3.05;0.80;;;17.10;50.80;;;;;;5133836;27;20136;-63
2022/05/30 14:03:47;;;;;;;0.77;0.75;;;17.20;50.50;;;;;;5113452;28;20114;-64
2022/05/30 14:06:31;;;;;;;0.63;0.63;;;17.20;48.90;;;;;;5131528;27;20031;-63
2022/05/30 14:09:02;;;;;;;3.67;1.10;;;17.20;50.60;;;;;;5132076;27;20027;-63
2022/05/30 14:11:37;;;;;;;3.15;1.17;;;17.20;49.30;;;;;;5132456;27;20027;-62
2022/05/30 14:14:04;;;;;;;0.77;0.75;;;17.10;49.30;;;;;;5131867;27;20044;-62
2022/05/30 14:16:36;;;;;;;1.13;1.00;;;17.10;49.80;;;;;;5131864;27;20027;-63
2022/05/30 14:19:29;;;;;;;1.33;0.98;;;17.20;48.80;;;;;;5123898;27;20112;-62
2022/05/30 14:22:10;;;;;;;0.85;0.82;;;17.20;49.20;;;;;;5131570;27;20034;-63
2022/05/30 14:24:38;;;;;;;8.38;1.55;;;17.20;50.00;;;;;;5132116;27;20027;-63
2022/05/30 14:27:17;;;;;;;1.33;1.13;;;17.20;50.20;;;;;;5131061;27;20031;-62
2022/05/30 14:29:47;;;;;;;2.35;1.13;;;17.20;50.20;;;;;;5131445;27;20054;-63
2022/05/30 14:32:18;;;;;;;1.80;1.25;;;17.10;49.90;;;;;;5132375;27;20079;-63
2022/05/30 14:35:04;;;;;;;6.18;1.20;;;17.10;49.60;;;;;;5130769;27;20039;-63
2022/05/30 14:37:29;;;;;;;1.35;0.80;;;17.00;49.40;;;;;;5124779;27;20030;-62
2022/05/30 14:40:03;;;;;;;1.73;0.80;;;17.00;49.60;;;;;;5131154;27;20035;-62
2022/05/30 14:42:36;;;;;;;1.92;0.90;;;17.00;49.70;;;;;;5131841;27;20023;-63
2022/05/30 14:45:15;;;;;;;2.25;0.90;;;17.00;49.10;;;;;;5131356;27;20027;-63
2022/05/30 14:47:48;;;;;;;3.67;1.17;;;17.00;49.60;;;;;;5130486;27;20468;-63
2022/05/30 14:50:22;;;;;;;1.60;0.90;;;17.00;50.20;;;;;;5129413;27;20063;-62
2022/05/30 14:52:55;;;;;;;3.10;0.90;;;17.00;48.90;;;;;;5130233;27;20456;-62
2022/05/30 14:55:31;;;;;;;1.20;0.80;;;17.10;48.20;;;;;;5130895;27;20046;-63
2022/05/30 14:58:10;;;;;;;3.90;1.77;;;17.10;49.90;;;;;;5131150;27;20027;-63
2022/05/30 15:00:56;;;;;;;0.80;0.77;;;17.10;48.30;;;;;;5131682;27;20023;-61
2022/05/30 15:06:09;;;;;;;2.42;0.80;;;17.10;48.60;;;;;;5131538;27;20114;-60
2022/05/30 15:08:36;;;;;;;2.30;1.05;;;17.20;48.70;;;;;;5131550;27;20110;-61
2022/05/30 15:11:15;;;;;;;1.73;0.88;;;17.10;48.70;;;;;;5131348;27;20043;-60
2022/05/30 15:13:55;;;;;;;2.00;0.98;;;17.10;48.70;;;;;;5130953;27;20031;-60
2022/05/30 15:16:22;;;;;;;1.20;0.90;;;17.10;49.20;;;;;;5130610;27;20023;-60
2022/05/30 15:18:47;;;;;;;1.23;0.82;;;17.10;48.30;;;;;;5117971;27;20122;-61
2022/05/30 15:21:25;;;;;;;1.92;1.13;;;17.10;47.70;;;;;;5130943;27;20110;-60